Flight Track Log - Related Links

Times and Time Zones

All times are in EDT time to prevent confusion due to time zone crossing. See the SKW5457 flight status page for this flight to view local times or setup timezone preferences in your user account.


Time Position Orientation Groundspeed Altitude Reporting Facility
EDT Latitude Longitude Course Direction KTS MPH feet Rate Location/Type
Tue 09:11:38 AM 39.7775 -121.8453 197° South 126 145 1,400  Level Oakland Center
Tue 09:12:38 AM 39.7692 -121.8942 258° West 193 222 2,900 1,600 Climbing Oakland Center
Tue 09:13:38 AM 39.7664 -121.9633 267° West 193 222 4,600 1,785 Climbing Oakland Center
Tue 09:14:39 AM 39.7486 -122.0306 251° West 197 227 6,500 1,785 Climbing Oakland Center
Tue 09:15:00 AM 39.4324 -122.1604 197° South  Level FlightAware Approximate
Tue 09:15:39 AM 39.7033 -122.0622 208° Southwest 206 237 8,200  Level Oakland Center
Tue 09:16:00 AM 39.3679 -122.1862 197° South  Level FlightAware Approximate
Tue 09:16:40 AM 39.6506 -122.0864 199° South 202 232 9,800  Level Oakland Center
Tue 09:17:40 AM 39.5953 -122.1094 198° South 208 239 11,500 1,587 Climbing Oakland Center
Tue 09:18:41 AM 39.5372 -122.1333 198° South 217 250 13,000 1,438 Climbing Oakland Center
Tue 09:19:41 AM 39.4783 -122.1572 197° South 221 254 14,400 1,140 Climbing Oakland Center
Tue 09:20:42 AM 39.4258 -122.1789 198° South 228 262 15,300 1,091 Climbing Oakland Center
Tue 09:21:42 AM 39.3494 -122.2103 198° South 239 275 16,600 843 Climbing Oakland Center
Tue 09:22:43 AM 39.2833 -122.2353 196° South 248 285 17,000 198 Climbing Oakland Center
Tue 09:23:43 AM 39.2122 -122.2772 205° Southwest 277 319 17,000  Level Oakland Center
Tue 09:24:44 AM 39.1406 -122.3164 203° Southwest 280 322 17,000  Level Oakland Center
Tue 09:25:44 AM 39.0681 -122.3531 201° Southwest 280 322 17,000  Level Oakland Center
Tue 09:26:45 AM 38.9967 -122.3906 202° Southwest 278 320 17,000  Level Oakland Center
Tue 09:27:46 AM 38.9236 -122.4292 202° Southwest 282 325 17,000  Level Oakland Center
Tue 09:28:46 AM 38.8519 -122.4669 202° Southwest 280 322 17,000  Level Oakland Center
Tue 09:29:47 AM 38.7797 -122.5047 202° Southwest 279 321 17,000 49 Level Oakland Center
Tue 09:30:48 AM 38.7089 -122.5411 202° Southwest 281 323 17,100 -50 Climbing Oakland Center
Tue 09:31:48 AM 38.6361 -122.5783 202° Southwest 282 325 16,900 -843 Descending Oakland Center
Tue 09:32:49 AM 38.5567 -122.6214 203° Southwest 314 361 15,400 -1,475 Descending Oakland Center

Login

Don't have an account? Register now (free) for customized features, flight alerts, and more!